Terminal Aerodrome Forecast
Issued by NWS

Home | Current Version | Previous Version | Text Only | Print | Product List | Glossary On
Versions: 1 2 3 4 5 6 7 8 9 10 11 12 13
000
FTUS45 KABQ 072346
TAFGUP
TAF
KGUP 072346Z 0800/0824 25014G22KT P6SM VCSH SCT070 BKN140
      TEMPO 0800/0802 VRB15G25KT -SHRA BKN060
     FM080300 21005KT P6SM SCT080 BKN120
     FM080600 VRB05KT P6SM SCT120
     FM081930 25013G22KT P6SM SCT100=

USA.gov is the U.S. government's official web portal to all federal, state and local government web resources and services.